createdAt,value
2023-04-20T00:00:11.378Z,6.26
2023-04-20T00:01:07.875Z,6.28
2023-04-20T00:02:06.611Z,6.26
2023-04-20T00:03:06.792Z,6.24
2023-04-20T00:04:06.714Z,6.27
2023-04-20T00:05:07.274Z,6.16
2023-04-20T00:06:06.759Z,6.24
2023-04-20T00:07:07.785Z,6.14
2023-04-20T00:08:06.365Z,6.17
2023-04-20T00:10:30.216Z,6.11
2023-04-20T00:10:33.244Z,6.14
2023-04-20T00:11:31.899Z,6.28
2023-04-20T00:12:31.940Z,6.22
2023-04-20T00:13:32.782Z,6.19
2023-04-20T00:14:31.840Z,6.22
2023-04-20T00:15:32.503Z,6.12
2023-04-20T00:17:51.958Z,6.09
2023-04-20T00:18:06.051Z,6.11
2023-04-20T00:18:57.227Z,6.14
2023-04-20T00:19:54.465Z,6.17
2023-04-20T00:20:53.725Z,6.01
2023-04-20T00:21:53.746Z,6.07
2023-04-20T00:22:53.609Z,6.04
2023-04-20T00:23:53.919Z,6.08
2023-04-20T00:24:53.603Z,6.11
2023-04-20T00:25:53.553Z,6.12
2023-04-20T00:26:53.595Z,6.14
2023-04-20T00:27:53.558Z,6.19
2023-04-20T00:28:53.966Z,6.12
2023-04-20T00:29:53.457Z,6.12
2023-04-20T00:30:54.149Z,6.22
2023-04-20T00:31:53.552Z,6.12
2023-04-20T00:32:53.513Z,6.14
2023-04-20T00:33:54.170Z,6.17
2023-04-20T00:34:53.413Z,6.19
2023-04-20T00:35:53.490Z,6.09
2023-04-20T00:36:53.698Z,6.17
2023-04-20T00:37:53.600Z,6.14
2023-04-20T00:38:57.144Z,6.17
2023-04-20T00:39:53.359Z,6.12
2023-04-20T00:40:53.432Z,6.22
2023-04-20T00:41:56.420Z,6.14
2023-04-20T00:42:55.278Z,6.09
2023-04-20T00:43:53.359Z,5.98
2023-04-20T00:44:53.420Z,6.08
2023-04-20T00:45:53.431Z,6.11
2023-04-20T00:46:53.549Z,6.16
2023-04-20T00:47:53.411Z,6.05
2023-04-20T00:48:53.287Z,6.08
2023-04-20T00:49:53.377Z,6.17
2023-04-20T00:50:53.476Z,6.17
2023-04-20T00:51:53.338Z,6.12
2023-04-20T00:52:53.219Z,6.11
2023-04-20T00:53:56.289Z,6.20
2023-04-20T00:54:53.280Z,6.22
2023-04-20T00:55:58.915Z,6.08
2023-04-20T00:56:54.109Z,6.08
2023-04-20T00:57:53.381Z,6.09
2023-04-20T00:58:53.174Z,6.16
2023-04-20T00:59:55.929Z,6.22
2023-04-20T01:00:54.202Z,6.17
2023-04-20T01:01:54.370Z,6.16
2023-04-20T01:02:53.352Z,6.08
2023-04-20T01:03:55.207Z,6.08
2023-04-20T01:04:53.179Z,6.05
2023-04-20T01:05:53.233Z,6.02
2023-04-20T01:06:53.191Z,5.98
2023-04-20T01:07:53.170Z,5.94
2023-04-20T01:08:53.313Z,5.93
2023-04-20T01:09:53.184Z,6.01
2023-04-20T01:10:53.932Z,5.99
2023-04-20T01:11:53.155Z,5.94
2023-04-20T01:12:53.139Z,5.91
2023-04-20T01:13:52.971Z,5.90
2023-04-20T01:14:53.307Z,5.93
2023-04-20T01:15:53.181Z,5.80
2023-04-20T01:16:53.017Z,5.83
2023-04-20T01:17:53.526Z,5.73
2023-04-20T01:18:53.054Z,5.73
2023-04-20T01:19:53.079Z,5.79
2023-04-20T01:20:53.998Z,5.76
2023-04-20T01:21:53.070Z,5.72
2023-04-20T01:22:52.954Z,5.68
2023-04-20T01:23:53.125Z,5.80
2023-04-20T01:24:52.953Z,5.73
2023-04-20T01:25:52.882Z,5.80
2023-04-20T01:26:52.911Z,5.80
2023-04-20T01:27:53.213Z,5.72
2023-04-20T01:28:53.025Z,5.64
2023-04-20T01:29:52.907Z,5.66
2023-04-20T01:30:52.924Z,5.71
2023-04-20T01:31:52.861Z,5.72
2023-04-20T01:32:53.007Z,5.66
2023-04-20T01:33:52.897Z,5.76
2023-04-20T01:34:52.869Z,5.87
2023-04-20T01:35:54.866Z,5.84
2023-04-20T01:36:54.188Z,5.83
2023-04-20T01:37:52.805Z,5.83
2023-04-20T01:38:52.735Z,5.76
2023-04-20T01:39:52.770Z,5.80
2023-04-20T01:40:52.892Z,5.80
2023-04-20T01:41:52.789Z,5.76
2023-04-20T01:42:52.869Z,5.75
2023-04-20T01:43:52.726Z,5.76
2023-04-20T01:44:52.828Z,5.82
2023-04-20T01:45:52.684Z,5.72
2023-04-20T01:46:52.776Z,5.80
2023-04-20T01:47:52.935Z,5.75
2023-04-20T01:48:52.677Z,5.80
2023-04-20T01:49:52.729Z,5.75
2023-04-20T01:50:53.672Z,5.83
2023-04-20T01:51:52.702Z,5.91
2023-04-20T01:52:52.765Z,5.84
2023-04-20T01:53:52.627Z,5.94
2023-04-20T01:54:52.625Z,5.97
2023-04-20T01:55:52.632Z,5.91
2023-04-20T01:56:52.630Z,5.98
2023-04-20T01:57:52.613Z,5.91
2023-04-20T01:58:53.228Z,5.98
2023-04-20T01:59:52.579Z,5.93
2023-04-20T02:00:52.819Z,5.98
2023-04-20T02:02:00.306Z,6.08
2023-04-20T02:02:53.742Z,6.05
2023-04-20T02:03:53.596Z,6.01
2023-04-20T02:04:52.589Z,5.90
2023-04-20T02:05:52.551Z,5.98
2023-04-20T02:06:52.490Z,5.91
2023-04-20T02:07:52.593Z,5.89
2023-04-20T02:08:52.564Z,5.94
2023-04-20T02:09:52.801Z,5.97
2023-04-20T02:10:53.381Z,5.89
2023-04-20T02:11:53.260Z,5.86
2023-04-20T02:12:52.774Z,5.86
2023-04-20T02:13:54.990Z,5.80
2023-04-20T02:15:06.451Z,5.69
2023-04-20T02:15:55.101Z,5.80
2023-04-20T02:16:54.478Z,5.76
2023-04-20T02:17:53.419Z,5.79
2023-04-20T02:18:52.338Z,5.75
2023-04-20T02:19:53.108Z,5.82
2023-04-20T02:20:52.461Z,5.80
2023-04-20T02:21:52.405Z,5.66
2023-04-20T02:22:52.418Z,5.73
2023-04-20T02:23:52.373Z,5.65
2023-04-20T02:24:52.465Z,5.72
2023-04-20T02:25:52.821Z,5.76
2023-04-20T02:26:52.464Z,5.80
2023-04-20T02:27:52.564Z,5.69
2023-04-20T02:28:52.362Z,5.73
2023-04-20T02:29:52.224Z,5.73
2023-04-20T02:30:52.496Z,5.75
2023-04-20T02:31:53.285Z,5.79
2023-04-20T02:32:52.274Z,5.72
2023-04-20T02:33:52.554Z,5.72
2023-04-20T02:34:52.219Z,5.72
2023-04-20T02:35:52.336Z,5.66
2023-04-20T02:36:53.123Z,5.68
2023-04-20T02:38:18.290Z,5.80
2023-04-20T02:38:54.584Z,5.80
2023-04-20T02:39:52.153Z,5.76
2023-04-20T02:40:53.230Z,5.73
2023-04-20T02:41:52.198Z,5.80
2023-04-20T02:42:53.706Z,5.80
2023-04-20T02:43:52.176Z,5.79
2023-04-20T02:44:52.209Z,5.79
2023-04-20T02:45:52.218Z,5.83
2023-04-20T02:46:52.241Z,5.75
2023-04-20T02:47:52.277Z,5.68
2023-04-20T02:48:52.116Z,5.76
2023-04-20T02:49:52.158Z,5.76
2023-04-20T02:50:52.013Z,5.83
2023-04-20T02:51:52.430Z,5.72
2023-04-20T02:52:52.041Z,5.69
2023-04-20T02:53:52.119Z,5.72
2023-04-20T02:54:52.791Z,5.83
2023-04-20T02:55:52.070Z,5.80
2023-04-20T02:56:52.039Z,5.79
2023-04-20T02:57:52.020Z,5.82
2023-04-20T02:58:52.024Z,5.79
2023-04-20T02:59:51.988Z,5.80
2023-04-20T03:00:52.023Z,5.84
2023-04-20T03:01:52.331Z,5.72
2023-04-20T03:02:52.131Z,5.71
2023-04-20T03:03:52.235Z,5.73
2023-04-20T03:04:52.137Z,5.65
2023-04-20T03:05:51.924Z,5.69
2023-04-20T03:06:52.007Z,5.75
2023-04-20T03:07:51.896Z,5.68
2023-04-20T03:08:53.335Z,5.71
2023-04-20T03:09:51.862Z,5.73
2023-04-20T03:10:51.960Z,5.72
2023-04-20T03:11:51.823Z,5.82
2023-04-20T03:12:52.713Z,5.72
2023-04-20T03:13:51.831Z,5.71
2023-04-20T03:14:55.128Z,5.59
2023-04-20T03:15:51.966Z,5.65
2023-04-20T03:16:52.426Z,5.61
2023-04-20T03:17:51.827Z,5.62
2023-04-20T03:18:51.776Z,5.72
2023-04-20T03:19:51.968Z,5.65
2023-04-20T03:20:51.753Z,5.65
2023-04-20T03:21:51.747Z,5.68
2023-04-20T03:22:51.749Z,5.57
2023-04-20T03:23:52.208Z,5.66
2023-04-20T03:24:53.487Z,5.64
2023-04-20T03:25:52.678Z,5.53
2023-04-20T03:26:51.635Z,5.59
2023-04-20T03:27:52.328Z,5.59
2023-04-20T03:28:51.749Z,5.54
2023-04-20T03:29:51.664Z,5.66
2023-04-20T03:30:51.644Z,5.48
2023-04-20T03:31:54.923Z,5.64
2023-04-20T03:32:51.964Z,5.64
2023-04-20T03:33:51.714Z,5.68
2023-04-20T03:34:56.223Z,5.53
2023-04-20T03:35:51.608Z,5.57
2023-04-20T03:36:53.934Z,5.62
2023-04-20T03:37:51.605Z,5.64
2023-04-20T03:38:51.721Z,5.59
2023-04-20T03:39:51.557Z,5.64
2023-04-20T03:40:51.505Z,5.56
2023-04-20T03:41:51.633Z,5.57
2023-04-20T03:42:51.518Z,5.57
2023-04-20T03:43:51.593Z,5.53
2023-04-20T03:44:51.469Z,5.59
2023-04-20T03:45:51.596Z,5.56
2023-04-20T03:46:58.491Z,5.59
2023-04-20T03:47:51.479Z,5.62
2023-04-20T03:48:51.588Z,5.57
2023-04-20T03:49:51.572Z,5.57
2023-04-20T03:50:51.560Z,5.57
2023-04-20T03:51:51.814Z,5.47
2023-04-20T03:52:51.458Z,5.51
2023-04-20T03:53:51.396Z,5.61
2023-04-20T03:54:51.512Z,5.56
2023-04-20T03:55:51.494Z,5.65
2023-04-20T03:56:58.640Z,5.57
2023-04-20T03:57:52.419Z,5.71
2023-04-20T03:58:51.483Z,5.64
2023-04-20T03:59:57.207Z,5.57
2023-04-20T04:00:52.460Z,5.61
2023-04-20T04:01:51.553Z,5.48
2023-04-20T04:02:51.431Z,5.50
2023-04-20T04:03:51.748Z,5.54
2023-04-20T04:04:51.484Z,5.50
2023-04-20T04:05:51.297Z,5.47
2023-04-20T04:06:55.053Z,5.48
2023-04-20T04:07:51.240Z,5.53
2023-04-20T04:08:51.578Z,5.47
2023-04-20T04:09:51.285Z,5.53
2023-04-20T04:10:51.338Z,5.47
2023-04-20T04:11:51.569Z,5.50
2023-04-20T04:12:51.262Z,5.48
2023-04-20T04:13:52.218Z,5.47
2023-04-20T04:14:59.386Z,5.46
2023-04-20T04:15:51.260Z,5.51
2023-04-20T04:16:51.344Z,5.57
2023-04-20T04:17:53.982Z,5.57
2023-04-20T04:18:51.223Z,5.56
2023-04-20T04:19:51.179Z,5.50
2023-04-20T04:20:53.171Z,5.44
2023-04-20T04:21:51.170Z,5.50
2023-04-20T04:22:51.130Z,5.46
2023-04-20T04:23:51.194Z,5.48
2023-04-20T04:24:51.506Z,5.43
2023-04-20T04:25:51.102Z,5.46
2023-04-20T04:26:51.272Z,5.41
2023-04-20T04:27:51.207Z,5.44
2023-04-20T04:28:51.639Z,5.41
2023-04-20T04:29:51.117Z,5.43
2023-04-20T04:30:51.013Z,5.43
2023-04-20T04:31:52.379Z,5.39
2023-04-20T04:32:51.104Z,5.30
2023-04-20T04:33:51.026Z,5.38
2023-04-20T04:34:51.068Z,5.46
2023-04-20T04:35:51.110Z,5.26
2023-04-20T04:36:51.263Z,5.29
2023-04-20T04:37:51.007Z,5.38
2023-04-20T04:38:51.665Z,5.46
2023-04-20T04:39:51.115Z,5.41
2023-04-20T04:40:51.261Z,5.48
2023-04-20T04:41:50.991Z,5.48
2023-04-20T04:42:52.153Z,5.38
2023-04-20T04:43:50.994Z,5.50
2023-04-20T04:44:50.906Z,5.48
2023-04-20T04:45:50.903Z,5.53
2023-04-20T04:46:50.897Z,5.57
2023-04-20T04:47:50.916Z,5.47
2023-04-20T04:48:51.065Z,5.41
2023-04-20T04:49:50.849Z,5.47
2023-04-20T04:50:51.690Z,5.53
2023-04-20T04:51:50.823Z,5.50
2023-04-20T04:52:50.861Z,5.50
2023-04-20T04:53:51.023Z,5.64
2023-04-20T04:54:50.839Z,5.57
2023-04-20T04:55:51.815Z,5.54
2023-04-20T04:58:26.901Z,5.72
2023-04-20T04:59:29.988Z,5.64
2023-04-20T05:00:26.549Z,5.69
2023-04-20T05:01:26.855Z,5.83
2023-04-20T05:02:26.932Z,5.71
2023-04-20T05:03:26.868Z,5.71
2023-04-20T05:04:32.106Z,5.69
2023-04-20T05:08:16.725Z,5.54
2023-04-20T05:10:04.582Z,5.57
2023-04-20T05:10:26.187Z,5.66
2023-04-20T05:11:18.036Z,5.68
2023-04-20T05:12:16.645Z,5.65
2023-04-20T05:17:29.911Z,5.62
2023-04-20T05:21:17.208Z,5.69
2023-04-20T05:22:50.626Z,5.64
2023-04-20T05:23:18.894Z,5.61
2023-04-20T05:24:18.218Z,5.65
2023-04-20T05:25:18.558Z,5.71
2023-04-20T05:26:18.013Z,5.65
2023-04-20T05:27:18.213Z,5.68
2023-04-20T05:28:17.999Z,5.75
2023-04-20T05:29:18.269Z,5.75
2023-04-20T05:30:21.214Z,5.72
2023-04-20T05:31:19.270Z,5.72
2023-04-20T05:32:18.142Z,5.84
2023-04-20T05:33:17.932Z,5.84
2023-04-20T05:34:17.949Z,5.86
2023-04-20T05:35:18.039Z,5.91
2023-04-20T05:36:20.945Z,5.87
2023-04-20T05:37:33.914Z,5.84
2023-04-20T05:38:20.962Z,5.93
2023-04-20T05:39:19.467Z,5.98
2023-04-20T05:40:47.898Z,5.87
2023-04-20T05:41:31.070Z,5.80
2023-04-20T05:42:21.424Z,5.80
2023-04-20T05:43:18.707Z,5.71
2023-04-20T05:44:26.999Z,5.69
2023-04-20T05:45:30.124Z,5.75
2023-04-20T05:46:18.948Z,5.76
2023-04-20T05:47:21.612Z,5.84
2023-04-20T05:48:22.910Z,5.76
2023-04-20T05:49:21.839Z,5.83
2023-04-20T05:50:23.863Z,5.84
2023-04-20T05:51:26.902Z,5.89
2023-04-20T05:52:30.191Z,5.86
2023-04-20T05:53:19.277Z,5.83
2023-04-20T05:54:19.364Z,5.75
2023-04-20T05:58:05.472Z,5.68
2023-04-20T05:58:35.479Z,5.72
2023-04-20T05:59:36.214Z,5.73
2023-04-20T06:00:55.557Z,5.80
2023-04-20T06:01:50.149Z,5.83
2023-04-20T06:02:52.627Z,5.83
2023-04-20T06:03:38.201Z,5.79
2023-04-20T06:04:48.043Z,5.89
2023-04-20T06:05:45.367Z,5.80
2023-04-20T06:06:39.947Z,5.73
2023-04-20T06:07:35.896Z,5.79
2023-04-20T06:10:00.674Z,5.64
2023-04-20T06:10:02.556Z,5.75
2023-04-20T06:11:02.462Z,5.84
2023-04-20T06:12:02.665Z,5.75
2023-04-20T06:13:02.588Z,5.65
2023-04-20T06:14:02.686Z,5.72
2023-04-20T06:15:02.355Z,5.79
2023-04-20T06:16:02.417Z,5.84
2023-04-20T06:17:02.503Z,5.83
2023-04-20T06:18:02.615Z,5.97
2023-04-20T06:32:31.577Z,5.57
2023-04-20T06:37:17.126Z,5.68
2023-04-20T06:40:09.062Z,5.69
2023-04-20T06:41:19.377Z,5.68
2023-04-20T06:42:09.766Z,5.73
2023-04-20T06:43:10.244Z,5.68
2023-04-20T06:44:10.756Z,5.75
2023-04-20T06:45:17.560Z,5.72
2023-04-20T06:46:11.000Z,5.73
2023-04-20T06:47:10.308Z,5.71
2023-04-20T06:48:20.255Z,5.62
2023-04-20T06:49:11.862Z,5.75
2023-04-20T06:50:10.230Z,5.73
2023-04-20T06:51:10.048Z,5.75
2023-04-20T06:52:10.075Z,5.71
2023-04-20T06:53:09.865Z,5.64
2023-04-20T06:54:10.002Z,5.73
2023-04-20T06:55:09.881Z,5.72
2023-04-20T06:57:31.472Z,5.68
2023-04-20T06:57:33.088Z,5.68
2023-04-20T06:58:33.198Z,5.65
2023-04-20T06:59:34.287Z,5.68
2023-04-20T07:00:33.041Z,5.69
2023-04-20T07:01:34.166Z,5.76
2023-04-20T07:02:33.178Z,5.69
2023-04-20T07:03:33.208Z,5.71
2023-04-20T07:04:33.176Z,5.69
2023-04-20T07:05:33.001Z,5.76
2023-04-20T07:06:33.177Z,5.79
2023-04-20T07:07:33.058Z,5.75
2023-04-20T07:08:33.115Z,5.76
2023-04-20T07:09:33.000Z,5.83
2023-04-20T07:10:33.022Z,5.87
2023-04-20T07:11:33.312Z,5.86
2023-04-20T07:12:32.900Z,5.86
2023-04-20T07:13:33.950Z,5.82
2023-04-20T07:14:34.012Z,5.76
2023-04-20T07:15:33.365Z,5.84
2023-04-20T07:16:33.089Z,5.79
2023-04-20T07:17:37.925Z,5.89
2023-04-20T07:18:35.107Z,5.80
2023-04-20T07:19:34.349Z,5.66
2023-04-20T07:20:33.497Z,5.80
2023-04-20T07:21:32.833Z,5.75
2023-04-20T07:22:32.874Z,5.72
2023-04-20T07:23:32.911Z,5.69
2023-04-20T07:24:34.951Z,5.72
2023-04-20T07:25:32.877Z,5.68
2023-04-20T07:26:32.849Z,5.83
2023-04-20T07:27:33.626Z,5.79
2023-04-20T07:28:32.810Z,5.79
2023-04-20T07:29:34.088Z,5.97
2023-04-20T07:30:33.727Z,5.93
2023-04-20T07:31:35.280Z,5.86
2023-04-20T07:32:33.680Z,5.86
2023-04-20T07:33:32.753Z,5.91
2023-04-20T07:34:33.051Z,5.97
2023-04-20T07:35:32.758Z,5.94
2023-04-20T07:36:32.797Z,5.93
2023-04-20T07:37:32.695Z,5.91
2023-04-20T07:38:32.917Z,5.87
2023-04-20T07:39:32.719Z,5.80
2023-04-20T07:40:39.199Z,5.86
2023-04-20T07:41:32.731Z,5.71
2023-04-20T07:42:35.265Z,5.76
2023-04-20T07:43:32.693Z,5.86
2023-04-20T07:44:32.701Z,5.86
2023-04-20T07:45:32.590Z,5.94
2023-04-20T07:46:32.693Z,5.90
2023-04-20T07:47:32.740Z,5.86
2023-04-20T07:48:32.568Z,5.94
2023-04-20T07:49:32.716Z,6.01
2023-04-20T07:50:33.534Z,6.04
2023-04-20T07:51:32.705Z,6.12
2023-04-20T07:52:32.553Z,6.16
2023-04-20T07:53:32.520Z,6.08
2023-04-20T07:54:32.564Z,6.16
2023-04-20T07:55:33.482Z,6.07
2023-04-20T07:56:32.802Z,6.12
2023-04-20T07:57:32.606Z,6.04
2023-04-20T07:58:32.523Z,6.24
2023-04-20T07:59:32.544Z,6.22
2023-04-20T08:00:32.430Z,6.33
2023-04-20T08:01:32.464Z,6.36
2023-04-20T08:02:32.696Z,6.46
2023-04-20T08:03:35.909Z,6.63
2023-04-20T08:04:32.992Z,6.72
2023-04-20T08:05:33.069Z,6.79
2023-04-20T08:06:32.570Z,6.87
2023-04-20T08:07:35.231Z,6.99
2023-04-20T08:08:32.397Z,7.06
2023-04-20T08:09:32.541Z,7.10
2023-04-20T08:10:32.441Z,7.14
2023-04-20T08:11:32.393Z,7.15
2023-04-20T08:12:32.457Z,7.18
2023-04-20T08:13:32.395Z,7.21
2023-04-20T08:14:32.333Z,7.33
2023-04-20T08:15:32.361Z,7.36
2023-04-20T08:16:32.370Z,7.38
2023-04-20T08:17:33.970Z,7.45
2023-04-20T08:18:32.360Z,7.50
2023-04-20T08:19:32.325Z,7.56
2023-04-20T08:21:32.952Z,7.53
2023-04-20T08:22:35.693Z,7.54
2023-04-20T08:23:32.158Z,7.67
2023-04-20T08:25:54.286Z,7.58
2023-04-20T08:25:56.209Z,7.50
2023-04-20T08:26:55.935Z,7.45
2023-04-20T08:27:55.955Z,7.42
2023-04-20T08:28:56.197Z,7.43
2023-04-20T08:29:55.969Z,7.35
2023-04-20T08:30:56.169Z,7.47
2023-04-20T08:31:56.121Z,7.29
2023-04-20T08:32:56.173Z,7.28
2023-04-20T08:33:56.835Z,7.25
2023-04-20T08:34:55.908Z,7.31
2023-04-20T08:35:55.875Z,7.38
2023-04-20T08:36:55.834Z,7.56
2023-04-20T08:37:55.832Z,7.47
2023-04-20T08:38:57.487Z,7.35
2023-04-20T08:39:57.020Z,7.39
2023-04-20T08:40:56.074Z,7.36
2023-04-20T08:41:56.238Z,7.48
2023-04-20T08:42:55.996Z,7.38
2023-04-20T08:43:55.795Z,7.39
2023-04-20T08:48:20.150Z,7.47
2023-04-20T08:50:45.665Z,7.42
2023-04-20T08:51:45.096Z,7.51
2023-04-20T08:52:45.505Z,7.32
2023-04-20T08:53:52.918Z,7.29
2023-04-20T08:55:45.855Z,7.13
2023-04-20T08:56:46.543Z,7.17
2023-04-20T08:57:47.541Z,7.15
2023-04-20T08:58:46.214Z,7.10
2023-04-20T09:01:12.764Z,7.14
2023-04-20T09:01:17.802Z,7.29
2023-04-20T09:02:17.800Z,7.38
2023-04-20T09:03:16.163Z,7.39
2023-04-20T09:04:16.247Z,7.31
2023-04-20T09:05:15.768Z,7.28
2023-04-20T09:06:15.769Z,7.36
2023-04-20T09:07:15.758Z,7.21
2023-04-20T09:08:16.710Z,7.32
2023-04-20T09:09:15.796Z,7.31
2023-04-20T09:10:15.804Z,7.40
2023-04-20T09:11:18.916Z,7.45
2023-04-20T09:12:18.578Z,7.43
2023-04-20T09:13:16.958Z,7.39
2023-04-20T09:14:17.650Z,7.50
2023-04-20T09:15:20.007Z,7.45
2023-04-20T09:16:18.270Z,7.24
2023-04-20T09:17:15.596Z,7.32
2023-04-20T09:18:15.658Z,7.31
2023-04-20T09:19:16.812Z,7.33
2023-04-20T09:20:18.290Z,7.39
2023-04-20T09:21:15.774Z,7.51
2023-04-20T09:22:16.133Z,7.60
2023-04-20T09:23:15.603Z,7.63
2023-04-20T09:24:17.036Z,7.67
2023-04-20T09:25:15.537Z,7.73
2023-04-20T09:26:15.525Z,7.72
2023-04-20T09:27:15.437Z,7.82
2023-04-20T09:28:15.665Z,7.79
2023-04-20T09:29:16.090Z,7.76
2023-04-20T09:30:15.937Z,7.70
2023-04-20T09:31:15.524Z,7.82
2023-04-20T09:32:15.659Z,7.83
2023-04-20T09:33:15.616Z,7.76
2023-04-20T09:34:15.693Z,7.87
2023-04-20T09:35:16.145Z,7.80
2023-04-20T09:36:15.435Z,7.95
2023-04-20T09:37:15.681Z,7.90
2023-04-20T09:38:15.434Z,7.98
2023-04-20T09:39:15.661Z,8.12
2023-04-20T09:40:15.459Z,8.10
2023-04-20T09:41:16.737Z,8.24
2023-04-20T09:43:02.386Z,8.41
2023-04-20T09:44:10.139Z,8.53
2023-04-20T09:45:12.150Z,8.51
2023-04-20T09:48:44.014Z,9.13
2023-04-20T09:49:43.891Z,9.23
2023-04-20T09:52:36.285Z,9.19
2023-04-20T10:00:43.238Z,8.73
2023-04-20T10:01:44.152Z,8.82
2023-04-20T10:02:43.616Z,8.74
2023-04-20T10:03:44.348Z,8.84
2023-04-20T10:04:44.603Z,8.79
2023-04-20T10:05:44.180Z,8.79
2023-04-20T10:06:44.321Z,8.87
2023-04-20T10:07:46.520Z,8.88
2023-04-20T10:08:44.152Z,8.85
2023-04-20T10:09:44.229Z,8.99
2023-04-20T10:10:44.263Z,8.99
2023-04-20T10:11:52.615Z,8.87
2023-04-20T10:12:48.129Z,8.94
2023-04-20T10:13:45.314Z,9.11
2023-04-20T10:16:05.845Z,8.99
2023-04-20T10:16:07.430Z,9.32
2023-04-20T10:17:07.642Z,9.31
2023-04-20T10:18:07.468Z,9.31
2023-04-20T10:19:09.041Z,9.23
2023-04-20T10:20:07.919Z,9.25
2023-04-20T10:21:08.422Z,9.23
2023-04-20T10:22:07.348Z,9.22
2023-04-20T10:23:07.547Z,9.18
2023-04-20T10:24:07.627Z,9.13
2023-04-20T10:25:07.625Z,9.08
2023-04-20T10:26:07.365Z,8.95
2023-04-20T10:27:07.575Z,9.10
2023-04-20T10:28:07.493Z,9.26
2023-04-20T10:29:07.321Z,9.31
2023-04-20T10:30:07.325Z,9.48
2023-04-20T10:31:08.275Z,9.56
2023-04-20T10:32:07.280Z,9.61
2023-04-20T10:33:07.501Z,9.62
2023-04-20T10:34:07.498Z,9.62
2023-04-20T10:35:07.284Z,9.44
2023-04-20T10:36:11.570Z,9.50
2023-04-20T10:37:07.184Z,9.62
2023-04-20T10:38:07.227Z,9.61
2023-04-20T10:39:07.226Z,9.73
2023-04-20T10:40:08.017Z,9.74
2023-04-20T10:41:08.196Z,9.87
2023-04-20T10:42:07.171Z,9.83
2023-04-20T10:43:07.225Z,9.77
2023-04-20T10:44:07.593Z,9.73
2023-04-20T10:45:08.172Z,9.66
2023-04-20T10:46:08.413Z,9.74
2023-04-20T10:47:07.120Z,9.68
2023-04-20T10:48:07.185Z,9.66
2023-04-20T10:50:31.048Z,9.72
2023-04-20T10:50:33.385Z,9.80
2023-04-20T10:51:35.821Z,9.82
2023-04-20T10:52:32.623Z,9.99
2023-04-20T10:53:32.776Z,9.91
2023-04-20T10:54:33.098Z,10.01
2023-04-20T10:55:32.619Z,10.04
2023-04-20T10:56:32.678Z,10.25
2023-04-20T10:57:32.969Z,10.28
2023-04-20T10:58:32.545Z,10.37
2023-04-20T10:59:33.533Z,10.61
2023-04-20T11:00:32.489Z,10.59
2023-04-20T11:01:32.592Z,10.54
2023-04-20T11:02:32.932Z,10.76
2023-04-20T11:03:33.343Z,11.02
2023-04-20T11:04:32.867Z,11.05
2023-04-20T11:05:32.677Z,10.92
2023-04-20T11:06:32.461Z,10.81
2023-04-20T11:07:34.664Z,10.76
2023-04-20T11:08:32.438Z,10.86
2023-04-20T11:09:32.587Z,10.81
2023-04-20T11:10:32.434Z,11.02
2023-04-20T11:11:32.528Z,11.12
2023-04-20T11:12:32.450Z,11.11
2023-04-20T11:13:32.390Z,11.14
2023-04-20T11:14:33.022Z,11.19
2023-04-20T11:15:32.439Z,11.35
2023-04-20T11:16:47.047Z,11.30
2023-04-20T11:17:37.031Z,11.62
2023-04-20T11:19:31.346Z,11.80
2023-04-20T11:19:34.617Z,12.13
2023-04-20T11:20:33.522Z,12.12
2023-04-20T11:21:33.442Z,12.29
2023-04-20T11:22:35.089Z,12.09
2023-04-20T11:23:33.469Z,12.04
2023-04-20T11:24:33.480Z,12.22
2023-04-20T11:25:33.510Z,12.31
2023-04-20T11:26:33.438Z,12.22
2023-04-20T11:27:33.386Z,12.13
2023-04-20T11:28:33.434Z,11.80
2023-04-20T11:29:34.315Z,11.59
2023-04-20T11:30:33.382Z,11.36
2023-04-20T11:31:33.476Z,11.26
2023-04-20T11:32:33.558Z,11.12
2023-04-20T11:33:33.836Z,11.23
2023-04-20T11:34:33.374Z,11.22
2023-04-20T11:35:33.753Z,11.33
2023-04-20T11:36:33.699Z,11.40
2023-04-20T11:37:33.267Z,11.52
2023-04-20T11:38:33.299Z,11.60
2023-04-20T11:39:33.568Z,11.80
2023-04-20T11:40:33.541Z,11.77
2023-04-20T11:41:33.306Z,11.75
2023-04-20T11:42:35.466Z,11.90
2023-04-20T11:43:33.495Z,11.97
2023-04-20T11:44:33.300Z,12.06
2023-04-20T11:45:35.086Z,12.10
2023-04-20T11:46:34.342Z,12.53
2023-04-20T11:47:33.365Z,12.65
2023-04-20T11:48:33.390Z,12.82
2023-04-20T11:49:33.599Z,12.93
2023-04-20T11:50:33.857Z,13.08
2023-04-20T11:51:34.049Z,13.18
2023-04-20T11:52:34.155Z,13.37
2023-04-20T11:53:33.216Z,13.52
2023-04-20T11:54:33.198Z,13.59
2023-04-20T11:55:33.310Z,13.59
2023-04-20T11:56:33.119Z,13.67
2023-04-20T11:57:33.146Z,13.60
2023-04-20T11:58:33.143Z,13.41
2023-04-20T11:59:33.231Z,13.41
2023-04-20T12:00:33.207Z,13.38
2023-04-20T12:01:33.186Z,13.12
2023-04-20T12:02:33.168Z,12.94
2023-04-20T12:03:34.049Z,12.62
2023-04-20T12:04:35.771Z,12.60
2023-04-20T12:05:33.204Z,12.64
2023-04-20T12:06:33.002Z,12.68
2023-04-20T12:07:33.051Z,12.80
2023-04-20T12:08:33.667Z,12.76
2023-04-20T12:09:33.009Z,12.60
2023-04-20T12:10:33.071Z,12.55
2023-04-20T12:11:32.930Z,12.32
2023-04-20T12:12:36.108Z,12.20
2023-04-20T12:13:34.282Z,12.20
2023-04-20T12:14:33.026Z,12.03
2023-04-20T12:15:33.641Z,11.88
2023-04-20T12:16:36.039Z,11.72
2023-04-20T12:17:34.113Z,11.75
2023-04-20T12:18:35.869Z,11.83
2023-04-20T12:19:33.303Z,11.54
2023-04-20T12:20:36.356Z,11.43
2023-04-20T12:21:32.915Z,11.33
2023-04-20T12:22:32.861Z,11.33
2023-04-20T12:23:32.843Z,11.23
2023-04-20T12:24:33.236Z,11.19
2023-04-20T12:25:32.823Z,11.22
2023-04-20T12:26:38.416Z,11.12
2023-04-20T12:27:34.844Z,11.10
2023-04-20T12:28:32.833Z,11.11
2023-04-20T12:29:32.811Z,11.12
2023-04-20T12:30:32.779Z,11.18
2023-04-20T12:31:33.673Z,11.35
2023-04-20T12:32:32.841Z,11.32
2023-04-20T12:33:32.724Z,11.22
2023-04-20T12:34:32.795Z,11.47
2023-04-20T12:35:32.762Z,11.66
2023-04-20T12:36:33.073Z,11.97
2023-04-20T12:37:32.722Z,12.21
2023-04-20T12:38:33.524Z,12.37
2023-04-20T12:39:32.703Z,12.28
2023-04-20T12:40:32.686Z,12.24
2023-04-20T12:41:32.665Z,12.12
2023-04-20T12:42:32.671Z,12.02
2023-04-20T12:43:33.242Z,11.90
2023-04-20T12:44:32.688Z,12.03
2023-04-20T12:45:32.646Z,12.18
2023-04-20T12:46:32.640Z,12.10
2023-04-20T12:47:32.648Z,12.29
2023-04-20T12:48:32.561Z,12.36
2023-04-20T12:49:33.743Z,12.47
2023-04-20T12:50:33.590Z,12.60
2023-04-20T12:51:33.266Z,12.82
2023-04-20T12:52:32.718Z,13.12
2023-04-20T12:53:33.012Z,13.00
2023-04-20T12:54:32.566Z,12.94
2023-04-20T12:55:32.571Z,12.90
2023-04-20T12:56:32.509Z,12.90
2023-04-20T12:57:32.652Z,12.91
2023-04-20T12:58:32.469Z,12.72
2023-04-20T12:59:33.127Z,12.50
2023-04-20T13:00:32.668Z,12.54
2023-04-20T13:01:32.662Z,12.35
2023-04-20T13:02:32.772Z,12.28
2023-04-20T13:03:32.762Z,12.40
2023-04-20T13:04:32.558Z,12.37
2023-04-20T13:05:32.474Z,12.42
2023-04-20T13:06:33.106Z,12.55
2023-04-20T13:07:32.365Z,12.55
2023-04-20T13:08:32.521Z,12.36
2023-04-20T13:09:32.398Z,12.27
2023-04-20T13:10:32.521Z,12.20
2023-04-20T13:11:36.616Z,12.06
2023-04-20T13:12:32.324Z,11.86
2023-04-20T13:13:32.518Z,11.86
2023-04-20T13:14:32.480Z,11.73
2023-04-20T13:16:35.356Z,11.55
2023-04-20T13:17:32.432Z,11.54
2023-04-20T13:18:37.547Z,11.68
2023-04-20T13:19:36.953Z,11.70
2023-04-20T13:20:35.041Z,12.04
2023-04-20T13:21:34.047Z,12.22
2023-04-20T13:22:37.241Z,12.36
2023-04-20T13:23:33.646Z,12.57
2023-04-20T13:24:35.278Z,12.90
2023-04-20T13:25:32.612Z,12.98
2023-04-20T13:26:34.340Z,13.13
2023-04-20T13:27:33.307Z,13.09
2023-04-20T13:28:33.209Z,12.95
2023-04-20T13:29:37.394Z,12.72
2023-04-20T13:30:32.662Z,12.49
2023-04-20T13:31:36.713Z,12.18
2023-04-20T13:32:44.209Z,11.97
2023-04-20T13:33:37.301Z,11.91
2023-04-20T13:34:39.219Z,11.84
2023-04-20T13:35:35.790Z,11.66
2023-04-20T13:36:40.970Z,11.65
2023-04-20T13:37:32.616Z,11.41
2023-04-20T13:38:41.717Z,11.36
2023-04-20T13:39:44.167Z,11.36
2023-04-20T13:40:34.724Z,11.50
2023-04-20T13:41:33.081Z,11.43
2023-04-20T13:42:35.078Z,11.47
2023-04-20T13:43:33.993Z,11.47
2023-04-20T13:44:37.759Z,11.73
2023-04-20T13:46:42.176Z,11.83
2023-04-20T13:51:30.536Z,12.06
2023-04-20T13:52:30.760Z,11.87
2023-04-20T13:53:30.492Z,11.72
2023-04-20T13:54:30.515Z,11.43
2023-04-20T13:55:30.446Z,11.32
2023-04-20T13:56:30.433Z,11.37
2023-04-20T13:57:30.359Z,11.22
2023-04-20T13:58:30.374Z,10.99
2023-04-20T13:59:30.394Z,10.81
2023-04-20T14:02:29.808Z,10.72
2023-04-20T14:03:29.802Z,10.72
2023-04-20T14:04:29.803Z,10.59
2023-04-20T14:05:29.629Z,10.63
2023-04-20T14:06:29.561Z,10.74
2023-04-20T14:09:11.415Z,10.75
2023-04-20T14:10:11.448Z,10.79
2023-04-20T14:11:19.041Z,10.72
2023-04-20T14:13:55.233Z,10.81
2023-04-20T14:15:06.402Z,10.79
2023-04-20T14:15:55.236Z,10.75
2023-04-20T14:17:03.109Z,10.69
2023-04-20T14:17:55.225Z,10.56
2023-04-20T14:18:55.106Z,10.51